Time;durP1;ratioP1;P1;durP2;ratioP2;P2;SDS_P1;SDS_P2;PMS_P1;PMS_P2;Temp;Humidity;BMP_temperature;BMP_pressure;BME280_temperature;BME280_humidity;BME280_pressure;Samples;Min_cycle;Max_cycle;Signal;HPM_P1;HPM_P2
2022/01/06 00:01:56;;;;;;;;;;;;;;;-14.62;54.75;96825.94;6374486;27;19923;-63
2022/01/06 00:04:57;;;;;;;;;;;;;;;-14.55;54.84;96817.72;6373667;27;19929;-63
2022/01/06 00:07:58;;;;;;;;;;;;;;;-14.62;55.09;96816.69;6374204;27;19923;-61
2022/01/06 00:10:59;;;;;;;;;;;;;;;-14.65;54.88;96815.75;6373160;27;19924;-62
2022/01/06 00:14:06;;;;;;;;;;;;;;;-14.62;54.84;96820.88;6374201;27;19924;-61
2022/01/06 00:18:12;;;;;;;;;;;;;;;-14.53;55.17;96816.97;6373924;27;20304;-62
2022/01/06 00:23:55;;;;;;;;;;;;;;;-14.43;55.20;96807.09;6372978;27;19924;-62
2022/01/06 00:26:57;;;;;;;;;;;;;;;-14.38;54.92;96806.44;6373326;27;19923;-62
2022/01/06 00:29:58;;;;;;;;;;;;;;;-14.37;54.86;96807.31;6373133;27;19923;-63
2022/01/06 00:32:59;;;;;;;;;;;;;;;-14.37;54.80;96812.38;6371965;27;19977;-63
2022/01/06 00:36:03;;;;;;;;;;;;;;;-14.40;55.54;96817.34;6373682;27;19923;-63
2022/01/06 00:39:04;;;;;;;;;;;;;;;-14.33;55.60;96812.50;6373112;27;20396;-63
2022/01/06 00:42:05;;;;;;;;;;;;;;;-14.33;55.27;96814.16;6372788;27;20288;-63
2022/01/06 00:45:07;;;;;;;;;;;;;;;-14.40;55.51;96819.88;6373389;27;19923;-63
2022/01/06 00:48:10;;;;;;;;;;;;;;;-14.41;55.37;96810.53;6373123;27;20014;-62
2022/01/06 00:51:11;;;;;;;;;;;;;;;-14.44;55.43;96798.66;6372200;27;19923;-62
2022/01/06 00:54:12;;;;;;;;;;;;;;;-14.36;55.45;96803.97;6373132;27;20411;-62
2022/01/06 00:57:13;;;;;;;;;;;;;;;-14.27;55.80;96804.25;6372257;27;19923;-62
2022/01/06 01:00:14;;;;;;;;;;;;;;;-14.17;55.43;96811.28;6371806;27;19931;-62
2022/01/06 01:03:20;;;;;;;;;;;;;;;-14.16;55.52;96815.53;6372376;27;19924;-62
2022/01/06 01:06:21;;;;;;;;;;;;;;;-14.16;55.34;96823.13;6372166;27;19930;-62
2022/01/06 01:09:24;;;;;;;;;;;;;;;-14.19;55.46;96828.06;6371906;27;19927;-62
2022/01/06 01:12:26;;;;;;;;;;;;;;;-14.19;55.70;96817.97;6371945;27;20300;-63
2022/01/06 01:15:28;;;;;;;;;;;;;;;-14.15;55.32;96829.91;6372624;27;19946;-63
2022/01/06 01:18:31;;;;;;;;;;;;;;;-14.16;55.58;96828.16;6372595;27;20436;-62
2022/01/06 01:21:35;;;;;;;;;;;;;;;-14.17;55.79;96826.47;6372330;27;19934;-61
2022/01/06 01:24:36;;;;;;;;;;;;;;;-14.18;55.86;96819.72;6372492;27;20331;-65
2022/01/06 01:27:41;;;;;;;;;;;;;;;-14.21;55.60;96819.59;6372336;27;19923;-61
2022/01/06 01:31:01;;;;;;;;;;;;;;;-14.21;55.92;96817.06;6371556;27;19923;-62
2022/01/06 01:34:09;;;;;;;;;;;;;;;-14.20;55.82;96806.16;6371440;27;19927;-62
2022/01/06 01:37:10;;;;;;;;;;;;;;;-14.17;55.78;96795.28;6372352;27;19923;-63
2022/01/06 01:40:13;;;;;;;;;;;;;;;-14.15;56.08;96783.50;6372168;27;20010;-62
2022/01/06 01:43:16;;;;;;;;;;;;;;;-14.12;56.18;96769.31;6372174;27;19928;-63
2022/01/06 01:46:20;;;;;;;;;;;;;;;-14.08;55.72;96761.00;6370846;27;20032;-63
2022/01/06 01:52:27;;;;;;;;;;;;;;;-14.07;55.82;96767.75;6371905;27;20018;-63
2022/01/06 01:55:32;;;;;;;;;;;;;;;-14.12;55.95;96769.31;6371900;27;19923;-63
2022/01/06 01:58:35;;;;;;;;;;;;;;;-14.09;56.32;96764.34;6371947;27;20335;-63
2022/01/06 02:01:42;;;;;;;;;;;;;;;-14.14;56.20;96780.19;6371995;28;19924;-63
2022/01/06 02:04:47;;;;;;;;;;;;;;;-14.17;56.09;96780.97;6371916;28;19923;-63
2022/01/06 02:07:48;;;;;;;;;;;;;;;-14.17;56.20;96785.16;6371057;28;20026;-62
2022/01/06 02:10:51;;;;;;;;;;;;;;;-14.14;56.34;96793.69;6371625;28;19927;-62
2022/01/06 02:14:04;;;;;;;;;;;;;;;-14.16;56.35;96807.94;6371373;28;19923;-62
2022/01/06 02:17:08;;;;;;;;;;;;;;;-14.11;55.84;96801.34;6371737;28;19969;-62
2022/01/06 02:20:13;;;;;;;;;;;;;;;-14.28;56.19;96810.13;6371367;28;19923;-62
2022/01/06 02:23:14;;;;;;;;;;;;;;;-14.40;56.50;96792.91;6371411;28;19924;-62
2022/01/06 02:26:15;;;;;;;;;;;;;;;-14.38;56.42;96788.75;6370814;28;19923;-62
2022/01/06 02:29:19;;;;;;;;;;;;;;;-14.38;56.26;96786.22;6371578;28;19927;-62
2022/01/06 02:32:22;;;;;;;;;;;;;;;-14.32;56.54;96771.28;6370865;28;19924;-62
2022/01/06 02:35:26;;;;;;;;;;;;;;;-14.25;56.45;96767.25;6375159;27;19923;-62
2022/01/06 02:38:27;;;;;;;;;;;;;;;-14.23;56.49;96768.16;6376582;27;19946;-62
2022/01/06 02:41:30;;;;;;;;;;;;;;;-14.17;56.38;96777.59;6376313;27;19976;-62
2022/01/06 02:44:31;;;;;;;;;;;;;;;-14.15;56.68;96779.34;6376234;27;19923;-62
2022/01/06 02:47:34;;;;;;;;;;;;;;;-14.11;56.67;96790.41;6375208;27;19930;-62
2022/01/06 02:50:40;;;;;;;;;;;;;;;-14.14;56.67;96791.16;6375364;27;19965;-63
2022/01/06 02:53:44;;;;;;;;;;;;;;;-14.09;56.47;96793.84;6375013;27;19947;-63
2022/01/06 02:56:45;;;;;;;;;;;;;;;-14.07;56.40;96798.09;6357155;27;20084;-64
2022/01/06 02:59:46;;;;;;;;;;;;;;;-14.06;56.66;96804.88;6375023;27;19923;-63
2022/01/06 03:02:47;;;;;;;;;;;;;;;-14.09;56.59;96807.31;6375323;27;19923;-63
2022/01/06 03:05:50;;;;;;;;;;;;;;;-14.06;56.76;96830.16;6375798;27;20382;-63
2022/01/06 03:08:53;;;;;;;;;;;;;;;-14.11;56.66;96826.63;6374951;27;19931;-63
2022/01/06 03:11:54;;;;;;;;;;;;;;;-14.20;57.02;96836.47;6374712;27;19931;-63
2022/01/06 03:14:55;;;;;;;;;;;;;;;-14.27;56.73;96837.09;6374732;27;19931;-63
2022/01/06 03:17:59;;;;;;;;;;;;;;;-14.22;57.16;96833.03;6375559;27;19923;-63
2022/01/06 03:21:00;;;;;;;;;;;;;;;-14.19;56.96;96817.13;6374717;27;19929;-63
2022/01/06 03:24:01;;;;;;;;;;;;;;;-14.14;57.10;96821.50;6375232;27;19923;-63
2022/01/06 03:27:04;;;;;;;;;;;;;;;-14.16;56.67;96828.16;6375222;27;19919;-62
2022/01/06 03:30:06;;;;;;;;;;;;;;;-14.22;56.90;96828.00;6375143;27;19931;-62
2022/01/06 03:33:07;;;;;;;;;;;;;;;-14.36;57.38;96824.19;6374807;27;19929;-63
2022/01/06 03:36:11;;;;;;;;;;;;;;;-14.54;57.40;96835.47;6375134;27;19923;-62
2022/01/06 03:39:14;;;;;;;;;;;;;;;-14.53;57.19;96837.19;6374543;27;19919;-62
2022/01/06 03:42:15;;;;;;;;;;;;;;;-14.43;57.69;96842.47;6374932;27;19930;-63
2022/01/06 03:45:18;;;;;;;;;;;;;;;-14.35;57.47;96856.22;6373505;27;19919;-63
2022/01/06 03:48:22;;;;;;;;;;;;;;;-14.38;57.46;96843.50;6374609;27;19923;-63
2022/01/06 03:51:23;;;;;;;;;;;;;;;-14.33;57.57;96859.66;6374131;27;19963;-63
2022/01/06 03:54:28;;;;;;;;;;;;;;;-14.26;57.24;96846.41;6374451;27;19931;-62
2022/01/06 03:57:29;;;;;;;;;;;;;;;-14.26;57.61;96837.16;6374357;27;19927;-63
2022/01/06 04:00:30;;;;;;;;;;;;;;;-14.31;57.62;96837.81;6374499;27;19930;-63
2022/01/06 04:03:34;;;;;;;;;;;;;;;-14.28;57.98;96853.94;6374231;27;19923;-63
2022/01/06 04:06:34;;;;;;;;;;;;;;;-14.19;57.83;96858.41;6372620;27;19923;-63
2022/01/06 04:09:38;;;;;;;;;;;;;;;-14.11;57.77;96856.13;6373818;27;19923;-63
2022/01/06 04:12:39;;;;;;;;;;;;;;;-14.00;57.75;96859.84;6373108;27;19931;-63
2022/01/06 04:15:44;;;;;;;;;;;;;;;-13.98;57.62;96868.34;6373911;27;19923;-62
2022/01/06 04:18:51;;;;;;;;;;;;;;;-14.05;57.61;96857.16;6373822;27;20292;-62
2022/01/06 04:21:52;;;;;;;;;;;;;;;-14.14;57.99;96856.88;6373154;27;19927;-62
2022/01/06 04:24:53;;;;;;;;;;;;;;;-14.07;57.91;96863.84;6373608;27;20392;-62
2022/01/06 04:27:54;;;;;;;;;;;;;;;-13.96;58.01;96875.94;6372880;27;19919;-62
2022/01/06 04:30:58;;;;;;;;;;;;;;;-13.93;57.54;96870.97;6373167;27;20316;-63
2022/01/06 04:33:58;;;;;;;;;;;;;;;-13.95;58.25;96872.59;6373693;27;19924;-63
2022/01/06 04:37:00;;;;;;;;;;;;;;;-13.99;58.10;96868.28;6372838;27;19923;-63
2022/01/06 04:40:03;;;;;;;;;;;;;;;-14.06;58.47;96869.78;6373356;27;19953;-63
2022/01/06 04:43:05;;;;;;;;;;;;;;;-14.04;58.37;96879.13;6372682;27;19930;-63
2022/01/06 04:46:08;;;;;;;;;;;;;;;-13.94;58.19;96874.34;6372770;27;19954;-63
2022/01/06 04:49:09;;;;;;;;;;;;;;;-13.87;57.98;96868.63;6372486;27;20018;-63
2022/01/06 04:52:10;;;;;;;;;;;;;;;-13.84;58.10;96873.78;6373103;27;19947;-63
2022/01/06 04:55:14;;;;;;;;;;;;;;;-13.86;57.88;96871.22;6373264;27;19923;-63
2022/01/06 04:58:19;;;;;;;;;;;;;;;-13.93;58.37;96868.44;6372648;27;20375;-62
2022/01/06 05:01:23;;;;;;;;;;;;;;;-13.90;58.54;96866.00;6372994;27;19923;-63
2022/01/06 05:04:24;;;;;;;;;;;;;;;-13.84;57.94;96859.47;6372144;27;19930;-63
2022/01/06 05:07:28;;;;;;;;;;;;;;;-13.82;58.58;96849.41;6371563;27;20015;-63
2022/01/06 05:10:29;;;;;;;;;;;;;;;-13.70;58.69;96847.25;6372164;27;19923;-63
2022/01/06 05:13:31;;;;;;;;;;;;;;;-13.55;58.66;96858.59;6371490;27;19945;-63
2022/01/06 05:16:32;;;;;;;;;;;;;;;-13.42;58.35;96863.19;6371603;27;19927;-65
2022/01/06 05:19:33;;;;;;;;;;;;;;;-13.33;57.96;96855.84;6372680;27;20380;-63
2022/01/06 05:22:41;;;;;;;;;;;;;;;-13.29;58.18;96857.66;6372307;27;19930;-63
2022/01/06 05:25:42;;;;;;;;;;;;;;;-13.20;57.94;96854.47;6372434;27;19974;-63
2022/01/06 05:28:43;;;;;;;;;;;;;;;-13.16;57.81;96861.31;6371971;27;19931;-63
2022/01/06 05:31:44;;;;;;;;;;;;;;;-13.19;57.88;96867.19;6372002;27;19930;-64
2022/01/06 05:34:45;;;;;;;;;;;;;;;-13.21;57.99;96861.22;6371745;27;19928;-63
2022/01/06 05:37:46;;;;;;;;;;;;;;;-13.18;57.77;96856.22;6371660;27;19923;-63
2022/01/06 05:40:50;;;;;;;;;;;;;;;-13.15;58.33;96861.38;6370993;27;19919;-63
2022/01/06 05:43:53;;;;;;;;;;;;;;;-13.03;57.74;96850.69;6371388;27;20432;-63
2022/01/06 05:46:56;;;;;;;;;;;;;;;-12.83;58.31;96850.38;6371810;27;19923;-65
2022/01/06 05:49:57;;;;;;;;;;;;;;;-12.62;58.21;96853.44;6371373;27;19971;-63
2022/01/06 05:52:58;;;;;;;;;;;;;;;-12.43;58.02;96855.56;6371421;27;20023;-65
2022/01/06 05:55:59;;;;;;;;;;;;;;;-12.32;57.88;96855.84;6371698;27;19931;-64
2022/01/06 05:59:03;;;;;;;;;;;;;;;-12.24;57.80;96849.28;6353903;27;19930;-65
2022/01/06 06:02:05;;;;;;;;;;;;;;;-12.12;57.45;96845.31;6371785;27;19923;-63
2022/01/06 06:05:06;;;;;;;;;;;;;;;-12.14;57.31;96841.88;6370730;28;19923;-63
2022/01/06 06:08:09;;;;;;;;;;;;;;;-12.08;57.19;96824.28;6370966;27;19923;-64
2022/01/06 06:11:10;;;;;;;;;;;;;;;-11.86;57.60;96829.00;6376185;27;20014;-63
2022/01/06 06:14:11;;;;;;;;;;;;;;;-11.60;57.03;96854.03;6376327;27;19924;-63
2022/01/06 06:17:12;;;;;;;;;;;;;;;-11.56;56.78;96843.97;6376569;27;19931;-63
2022/01/06 06:20:16;;;;;;;;;;;;;;;-11.46;56.75;96855.19;6376994;27;20304;-63
2022/01/06 06:23:17;;;;;;;;;;;;;;;-11.31;56.76;96845.31;6376523;27;19923;-64
2022/01/06 06:26:18;;;;;;;;;;;;;;;-11.20;56.37;96853.16;6376488;27;20300;-64
2022/01/06 06:29:20;;;;;;;;;;;;;;;-11.08;56.56;96845.75;6375381;27;19924;-64
2022/01/06 06:32:25;;;;;;;;;;;;;;;-10.96;56.27;96852.75;6376083;27;19924;-62
2022/01/06 06:35:26;;;;;;;;;;;;;;;-10.83;56.05;96869.09;6376577;27;20424;-63
2022/01/06 06:38:27;;;;;;;;;;;;;;;-10.79;56.12;96859.81;6375212;27;19931;-63
2022/01/06 06:41:28;;;;;;;;;;;;;;;-10.81;56.16;96858.94;6375802;27;19923;-63
2022/01/06 06:44:33;;;;;;;;;;;;;;;-10.77;56.50;96861.56;6376046;27;20459;-63
2022/01/06 06:47:37;;;;;;;;;;;;;;;-10.73;56.51;96876.03;6375252;27;19931;-62
2022/01/06 06:50:38;;;;;;;;;;;;;;;-10.70;56.48;96854.88;6375341;27;19923;-63
2022/01/06 06:53:43;;;;;;;;;;;;;;;-10.71;56.49;96848.94;6357824;27;20387;-63
2022/01/06 06:56:44;;;;;;;;;;;;;;;-10.60;56.36;96841.50;6375090;27;19923;-63
2022/01/06 06:59:45;;;;;;;;;;;;;;;-10.35;56.29;96841.94;6374904;27;20423;-64
2022/01/06 07:02:47;;;;;;;;;;;;;;;-10.12;55.74;96845.66;6375367;27;19923;-62
2022/01/06 07:05:47;;;;;;;;;;;;;;;-9.97;55.61;96850.94;6374971;27;19946;-62
2022/01/06 07:08:51;;;;;;;;;;;;;;;-9.66;55.35;96848.84;6375404;27;19953;-63
2022/01/06 07:11:52;;;;;;;;;;;;;;;-9.28;55.24;96858.69;6374568;27;19924;-64
2022/01/06 07:14:53;;;;;;;;;;;;;;;-9.00;54.50;96858.97;6374570;27;19931;-62
2022/01/06 07:17:59;;;;;;;;;;;;;;;-8.95;54.59;96854.81;6375354;27;19924;-63
2022/01/06 07:21:03;;;;;;;;;;;;;;;-8.92;54.56;96852.28;6374708;27;19923;-63
2022/01/06 07:24:05;;;;;;;;;;;;;;;-9.02;54.74;96850.50;6356680;27;19931;-63
2022/01/06 07:27:09;;;;;;;;;;;;;;;-8.99;54.96;96846.28;6374571;27;19973;-63
2022/01/06 07:30:12;;;;;;;;;;;;;;;-8.91;54.97;96829.38;6374438;27;19923;-62
2022/01/06 07:33:16;;;;;;;;;;;;;;;-8.97;55.28;96825.88;6374352;27;19927;-63
2022/01/06 07:36:19;;;;;;;;;;;;;;;-8.95;55.00;96812.31;6375018;27;20392;-62
2022/01/06 07:39:20;;;;;;;;;;;;;;;-8.92;54.71;96811.50;6356439;27;19930;-63
2022/01/06 07:42:24;;;;;;;;;;;;;;;-8.60;54.88;96797.34;6374774;27;19927;-63
2022/01/06 07:45:28;;;;;;;;;;;;;;;-8.22;54.44;96786.53;6374559;27;19923;-65
2022/01/06 07:48:47;;;;;;;;;;;;;;;-7.94;53.43;96779.94;6374287;27;19923;-65
2022/01/06 07:51:48;;;;;;;;;;;;;;;-7.82;53.38;96781.69;6373468;27;19923;-65
2022/01/06 07:54:50;;;;;;;;;;;;;;;-7.72;53.08;96783.47;6373851;27;20003;-65
2022/01/06 07:57:51;;;;;;;;;;;;;;;-7.64;53.68;96790.28;6355504;27;19923;-65
2022/01/06 08:00:56;;;;;;;;;;;;;;;-7.67;53.66;96796.25;6373267;27;19933;-65
2022/01/06 08:04:01;;;;;;;;;;;;;;;-7.82;53.52;96801.28;6374004;27;19927;-65
2022/01/06 08:07:03;;;;;;;;;;;;;;;-7.88;53.75;96802.09;6373627;27;19934;-65
2022/01/06 08:10:10;;;;;;;;;;;;;;;-7.82;54.05;96797.00;6374220;27;19927;-62
2022/01/06 08:13:13;;;;;;;;;;;;;;;-7.71;53.79;96790.25;6373670;27;20392;-62
2022/01/06 08:16:14;;;;;;;;;;;;;;;-7.60;54.15;96799.69;6373455;27;19924;-62
2022/01/06 08:19:18;;;;;;;;;;;;;;;-7.52;53.71;96800.59;6373527;27;19980;-63
2022/01/06 08:22:22;;;;;;;;;;;;;;;-7.55;53.99;96787.81;6373466;27;20413;-61
2022/01/06 08:25:25;;;;;;;;;;;;;;;-7.86;53.95;96795.31;6373744;27;19923;-62
2022/01/06 08:28:26;;;;;;;;;;;;;;;-8.04;53.91;96787.50;6372611;27;19984;-63
2022/01/06 08:31:27;;;;;;;;;;;;;;;-8.18;54.02;96798.50;6372513;27;19923;-62
2022/01/06 08:34:28;;;;;;;;;;;;;;;-8.20;54.22;96799.34;6373025;27;20393;-62
2022/01/06 08:37:32;;;;;;;;;;;;;;;-8.18;53.85;96802.72;6372796;27;19972;-62
2022/01/06 08:40:38;;;;;;;;;;;;;;;-8.34;53.87;96796.69;6373343;27;19923;-63
2022/01/06 08:43:39;;;;;;;;;;;;;;;-8.43;54.07;96796.66;6373379;27;19923;-64
2022/01/06 08:46:45;;;;;;;;;;;;;;;-8.38;54.12;96794.94;6373054;27;20018;-63
2022/01/06 08:49:46;;;;;;;;;;;;;;;-8.28;53.83;96795.88;6371330;27;20393;-63
2022/01/06 08:52:51;;;;;;;;;;;;;;;-8.41;53.98;96784.72;6372367;27;19924;-63
2022/01/06 08:55:52;;;;;;;;;;;;;;;-8.46;54.38;96787.28;6354390;27;19973;-62
2022/01/06 08:58:56;;;;;;;;;;;;;;;-8.42;54.19;96781.34;6372943;27;19923;-63
2022/01/06 09:01:59;;;;;;;;;;;;;;;-8.39;54.14;96781.34;6372968;27;19992;-63
2022/01/06 09:05:05;;;;;;;;;;;;;;;-8.34;54.24;96796.69;6373089;27;19927;-63
2022/01/06 09:08:08;;;;;;;;;;;;;;;-8.31;53.30;96794.16;6372727;27;19923;-63
2022/01/06 09:11:09;;;;;;;;;;;;;;;-8.65;54.37;96795.59;6371970;27;19923;-63
2022/01/06 09:14:11;;;;;;;;;;;;;;;-8.61;54.35;96795.63;6372463;27;20304;-63
2022/01/06 09:17:13;;;;;;;;;;;;;;;-8.43;54.41;96794.09;6371767;27;19930;-63
2022/01/06 09:20:16;;;;;;;;;;;;;;;-8.29;53.31;96800.13;6371956;27;20018;-63
2022/01/06 09:23:17;;;;;;;;;;;;;;;-8.13;53.89;96801.91;6371859;27;20316;-63
2022/01/06 09:26:21;;;;;;;;;;;;;;;-7.76;53.39;96801.31;6372195;27;20389;-63
2022/01/06 09:29:24;;;;;;;;;;;;;;;-7.46;52.37;96798.06;6372286;27;19976;-62
2022/01/06 09:32:29;;;;;;;;;;;;;;;-7.34;51.81;96800.66;6372153;27;19923;-62
2022/01/06 09:35:33;;;;;;;;;;;;;;;-7.08;51.60;96798.19;6372146;27;19927;-62
2022/01/06 09:38:34;;;;;;;;;;;;;;;-7.06;51.08;96801.59;6372005;27;20400;-64
2022/01/06 09:41:35;;;;;;;;;;;;;;;-7.16;50.99;96799.00;6371941;27;19924;-63
2022/01/06 09:44:37;;;;;;;;;;;;;;;-7.45;52.03;96792.09;6372008;27;20400;-63
2022/01/06 09:47:41;;;;;;;;;;;;;;;-7.78;52.69;96793.66;6371445;27;19923;-64
2022/01/06 09:50:43;;;;;;;;;;;;;;;-7.93;53.07;96778.22;6371401;27;19923;-63
2022/01/06 09:53:44;;;;;;;;;;;;;;;-8.04;53.78;96775.59;6371032;27;19924;-62
2022/01/06 09:56:45;;;;;;;;;;;;;;;-8.16;53.34;96770.41;6370630;27;20004;-62
2022/01/06 09:59:49;;;;;;;;;;;;;;;-8.24;53.87;96782.28;6371932;27;20396;-63
2022/01/06 10:02:57;;;;;;;;;;;;;;;-8.24;53.44;96774.63;6371731;27;19924;-65
2022/01/06 10:06:08;;;;;;;;;;;;;;;-8.21;53.59;96775.50;6370440;28;20423;-62
2022/01/06 10:09:09;;;;;;;;;;;;;;;-8.15;53.79;96778.09;6370681;28;19924;-63
2022/01/06 10:12:13;;;;;;;;;;;;;;;-8.15;53.30;96778.09;6369876;28;19923;-63
2022/01/06 10:15:15;;;;;;;;;;;;;;;-8.15;53.36;96777.25;6371004;28;20296;-63
2022/01/06 10:18:18;;;;;;;;;;;;;;;-8.15;53.57;96778.09;6371353;28;19923;-63
2022/01/06 10:21:22;;;;;;;;;;;;;;;-8.14;53.02;96779.81;6371078;28;20392;-63
2022/01/06 10:24:27;;;;;;;;;;;;;;;-8.36;53.61;96772.84;6370223;28;19927;-62
2022/01/06 10:27:30;;;;;;;;;;;;;;;-8.60;54.02;96764.19;6371222;28;19919;-63
2022/01/06 10:30:34;;;;;;;;;;;;;;;-8.78;54.47;96764.03;6371372;28;20331;-63
2022/01/06 10:33:41;;;;;;;;;;;;;;;-8.87;54.46;96776.69;6370997;28;19923;-64
2022/01/06 10:36:42;;;;;;;;;;;;;;;-8.84;54.65;96769.06;6370711;28;19923;-62
2022/01/06 10:39:46;;;;;;;;;;;;;;;-8.84;54.57;96779.28;6370324;28;19927;-63
2022/01/06 10:42:49;;;;;;;;;;;;;;;-8.93;54.69;96779.19;6371003;28;20053;-62
2022/01/06 10:45:58;;;;;;;;;;;;;;;-9.05;54.59;96775.69;6370512;28;19926;-63
2022/01/06 10:49:03;;;;;;;;;;;;;;;-9.15;54.63;96762.81;6370389;28;19924;-63
2022/01/06 10:52:04;;;;;;;;;;;;;;;-9.40;54.97;96772.75;6370064;28;19920;-63
2022/01/06 10:55:09;;;;;;;;;;;;;;;-9.69;55.16;96757.13;6372327;27;20308;-63
2022/01/06 10:58:16;;;;;;;;;;;;;;;-9.86;55.65;96748.44;6375455;27;20388;-63
2022/01/06 11:01:19;;;;;;;;;;;;;;;-9.94;55.93;96736.44;6374268;27;19923;-64
2022/01/06 11:04:20;;;;;;;;;;;;;;;-10.06;55.98;96736.31;6374798;27;19923;-63
2022/01/06 11:07:21;;;;;;;;;;;;;;;-10.19;56.25;96735.31;6374398;27;19947;-62
2022/01/06 11:10:23;;;;;;;;;;;;;;;-10.21;56.58;96738.66;6374308;27;19924;-63
2022/01/06 11:13:26;;;;;;;;;;;;;;;-10.22;56.86;96735.25;6374040;27;20023;-63
2022/01/06 11:16:27;;;;;;;;;;;;;;;-10.23;56.93;96736.06;6356447;27;19923;-64
2022/01/06 11:19:29;;;;;;;;;;;;;;;-10.17;56.95;96732.75;6375208;27;20022;-63
2022/01/06 11:22:33;;;;;;;;;;;;;;;-10.41;56.82;96734.16;6375128;27;19945;-64
2022/01/06 11:25:38;;;;;;;;;;;;;;;-10.59;57.48;96735.56;6356598;27;20260;-63
2022/01/06 11:28:43;;;;;;;;;;;;;;;-10.52;57.11;96753.50;6374479;27;19923;-63
2022/01/06 11:31:49;;;;;;;;;;;;;;;-10.82;57.90;96763.19;6374922;27;19974;-64
2022/01/06 11:34:50;;;;;;;;;;;;;;;-10.87;58.16;96776.69;6373404;27;20304;-64
2022/01/06 11:37:56;;;;;;;;;;;;;;;-10.97;58.30;96784.97;6374487;27;20396;-63
2022/01/06 11:41:08;;;;;;;;;;;;;;;-11.25;58.94;96786.16;6374646;27;19928;-63
2022/01/06 11:44:19;;;;;;;;;;;;;;;-11.38;59.06;96782.53;6373578;27;20015;-63
2022/01/06 11:47:48;;;;;;;;;;;;;;;-11.21;59.38;96764.19;6374663;27;19923;-64
2022/01/06 11:50:50;;;;;;;;;;;;;;;-11.54;59.43;96760.22;6369688;27;19923;-63
2022/01/06 11:53:52;;;;;;;;;;;;;;;-11.51;59.81;96762.81;6373423;27;19923;-62
2022/01/06 11:56:56;;;;;;;;;;;;;;;-11.52;59.92;96768.69;6374368;27;19934;-62
2022/01/06 11:59:58;;;;;;;;;;;;;;;-11.69;60.17;96754.84;6373393;27;20019;-62
2022/01/06 12:03:01;;;;;;;;;;;;;;;-11.58;60.66;96760.97;6373159;27;19923;-63
2022/01/06 12:06:02;;;;;;;;;;;;;;;-11.80;60.37;96763.09;6371613;27;20381;-63
2022/01/06 12:09:13;;;;;;;;;;;;;;;-11.86;60.69;96763.03;6373247;27;19946;-62
2022/01/06 12:12:17;;;;;;;;;;;;;;;-11.67;60.83;96759.13;6373990;27;19919;-62
2022/01/06 12:15:19;;;;;;;;;;;;;;;-11.83;60.72;96767.25;6372842;27;19923;-62
2022/01/06 12:18:24;;;;;;;;;;;;;;;-11.94;60.94;96772.16;6373923;27;19923;-63
2022/01/06 12:21:27;;;;;;;;;;;;;;;-11.98;60.83;96788.97;6373539;27;20317;-62
2022/01/06 12:24:29;;;;;;;;;;;;;;;-11.94;60.72;96805.13;6372817;27;19923;-63
2022/01/06 12:27:30;;;;;;;;;;;;;;;-11.87;60.77;96791.75;6372488;27;19924;-63
2022/01/06 12:30:34;;;;;;;;;;;;;;;-11.80;60.97;96793.56;6373218;27;19980;-63
2022/01/06 12:33:45;;;;;;;;;;;;;;;-11.87;60.97;96794.28;6371196;27;20516;-63
2022/01/06 12:36:47;;;;;;;;;;;;;;;-11.90;60.51;96781.53;6372482;27;20384;-63
2022/01/06 12:39:48;;;;;;;;;;;;;;;-12.09;61.57;96789.56;6372599;27;19952;-63
2022/01/06 12:42:54;;;;;;;;;;;;;;;-12.20;61.15;96791.88;6372980;27;20354;-64
2022/01/06 12:46:01;;;;;;;;;;;;;;;-12.14;61.80;96786.06;6372318;27;19931;-64
2022/01/06 12:49:07;;;;;;;;;;;;;;;-12.13;61.79;96790.34;6354602;27;19923;-63
2022/01/06 12:52:09;;;;;;;;;;;;;;;-11.95;61.39;96793.25;6373054;27;19923;-65
2022/01/06 12:55:12;;;;;;;;;;;;;;;-12.08;61.30;96796.38;6372829;27;19923;-63
2022/01/06 12:58:22;;;;;;;;;;;;;;;-12.16;61.81;96793.66;6372239;27;19945;-62
2022/01/06 13:01:23;;;;;;;;;;;;;;;-12.14;61.89;96796.22;6372071;27;20033;-63
2022/01/06 13:04:26;;;;;;;;;;;;;;;-11.96;61.89;96785.63;6372722;27;19930;-62
2022/01/06 13:07:30;;;;;;;;;;;;;;;-12.17;62.16;96786.00;6372563;27;20293;-62
2022/01/06 13:10:31;;;;;;;;;;;;;;;-12.23;61.94;96787.59;6372696;27;19927;-62
2022/01/06 13:13:50;;;;;;;;;;;;;;;-12.29;62.12;96779.84;6372505;27;19923;-63
2022/01/06 13:17:09;;;;;;;;;;;;;;;-12.11;62.07;96760.81;6372557;27;19928;-63
2022/01/06 13:20:15;;;;;;;;;;;;;;;-12.10;62.70;96780.25;6371231;27;20304;-64
2022/01/06 13:26:47;;;;;;;;;;;;;;;-11.99;61.75;96791.50;6372011;27;19923;-62
2022/01/06 13:29:52;;;;;;;;;;;;;;;-11.99;62.12;96791.50;6371849;27;20388;-62
2022/01/06 13:32:58;;;;;;;;;;;;;;;-12.24;62.07;96790.94;6372099;27;19923;-64
2022/01/06 13:36:03;;;;;;;;;;;;;;;-12.19;62.92;96780.06;6370933;27;19923;-63
2022/01/06 13:39:06;;;;;;;;;;;;;;;-12.23;63.05;96767.31;6370692;27;19923;-64
2022/01/06 13:42:08;;;;;;;;;;;;;;;-12.42;63.17;96755.06;6371064;27;20304;-63
2022/01/06 13:51:04;;;;;;;;;;;;;;;-12.40;63.73;96735.66;6349519;27;19931;-62
2022/01/06 13:52:18;;;;;;;;;;;;;;;-12.33;64.08;96732.44;6372096;27;19930;-63
2022/01/06 13:55:19;;;;;;;;;;;;;;;-12.26;63.58;96723.28;6370652;27;20332;-63
2022/01/06 13:58:22;;;;;;;;;;;;;;;-12.29;63.53;96734.19;6371827;27;19924;-62
2022/01/06 14:01:28;;;;;;;;;;;;;;;-12.28;64.09;96730.88;6371889;27;19946;-63
2022/01/06 14:04:34;;;;;;;;;;;;;;;-12.34;63.58;96728.19;6370781;27;20018;-63
2022/01/06 14:07:38;;;;;;;;;;;;;;;-12.32;63.57;96731.59;6371518;28;19923;-63
2022/01/06 14:10:41;;;;;;;;;;;;;;;-12.36;64.26;96729.00;6371062;28;19924;-63
2022/01/06 14:13:46;;;;;;;;;;;;;;;-12.31;63.89;96723.19;6370518;28;19923;-63
2022/01/06 14:16:49;;;;;;;;;;;;;;;-12.37;64.56;96728.09;6371860;28;19931;-63
2022/01/06 14:19:52;;;;;;;;;;;;;;;-12.27;64.44;96724.09;6371112;28;20061;-63
2022/01/06 14:22:53;;;;;;;;;;;;;;;-12.38;64.31;96720.47;6370625;28;19927;-62
2022/01/06 14:25:54;;;;;;;;;;;;;;;-12.24;64.70;96724.16;6370139;28;19923;-63
2022/01/06 14:28:57;;;;;;;;;;;;;;;-12.32;64.39;96715.53;6351911;27;20018;-64
2022/01/06 14:31:58;;;;;;;;;;;;;;;-12.36;64.80;96707.03;6375351;27;19923;-63
2022/01/06 14:34:59;;;;;;;;;;;;;;;-12.44;64.73;96711.91;6375248;27;19946;-63
2022/01/06 14:38:00;;;;;;;;;;;;;;;-12.43;64.70;96715.31;6376297;27;19923;-63
2022/01/06 14:41:04;;;;;;;;;;;;;;;-12.50;65.01;96710.94;6376231;27;19923;-65
2022/01/06 14:44:07;;;;;;;;;;;;;;;-12.41;64.93;96713.66;6375642;27;19969;-62
2022/01/06 14:47:10;;;;;;;;;;;;;;;-12.59;64.95;96710.75;6376106;27;19923;-64
2022/01/06 14:50:12;;;;;;;;;;;;;;;-12.57;65.61;96709.94;6374740;27;19931;-64
2022/01/06 14:53:16;;;;;;;;;;;;;;;-12.46;65.60;96717.78;6375994;27;20389;-62
2022/01/06 14:56:19;;;;;;;;;;;;;;;-12.39;65.61;96716.25;6375863;27;19931;-62
2022/01/06 14:59:23;;;;;;;;;;;;;;;-12.29;65.65;96711.38;6375892;27;19929;-63
2022/01/06 15:02:24;;;;;;;;;;;;;;;-12.34;65.72;96717.19;6374652;27;19930;-63
2022/01/06 15:05:25;;;;;;;;;;;;;;;-12.34;65.63;96718.06;6356997;27;19976;-64
2022/01/06 15:08:26;;;;;;;;;;;;;;;-12.32;65.86;96721.47;6375139;27;19923;-62
2022/01/06 15:11:30;;;;;;;;;;;;;;;-12.42;66.02;96714.50;6375580;27;19927;-63
2022/01/06 15:14:31;;;;;;;;;;;;;;;-12.29;66.30;96701.25;6375446;27;19977;-62
2022/01/06 15:17:32;;;;;;;;;;;;;;;-11.95;65.80;96686.69;6375337;27;19930;-62
2022/01/06 15:20:33;;;;;;;;;;;;;;;-12.35;66.28;96675.75;6375322;27;20400;-64
2022/01/06 15:23:36;;;;;;;;;;;;;;;-12.40;67.03;96682.41;6374687;27;19923;-62
2022/01/06 15:26:37;;;;;;;;;;;;;;;-12.10;67.18;96671.19;6375041;27;19926;-63
2022/01/06 15:29:42;;;;;;;;;;;;;;;-12.13;67.33;96666.91;6374907;27;19923;-62
2022/01/06 15:32:44;;;;;;;;;;;;;;;-12.27;67.21;96659.03;6374952;27;19928;-63
2022/01/06 15:35:50;;;;;;;;;;;;;;;-12.44;68.23;96657.84;6374873;27;19927;-63
2022/01/06 15:38:56;;;;;;;;;;;;;;;-12.26;68.31;96663.25;6355994;27;19923;-63
2022/01/06 15:41:57;;;;;;;;;;;;;;;-12.29;68.46;96660.66;6374482;27;19919;-62
2022/01/06 15:44:58;;;;;;;;;;;;;;;-12.16;68.71;96666.00;6374685;27;19923;-65
2022/01/06 15:47:59;;;;;;;;;;;;;;;-12.34;69.07;96661.41;6374649;27;19923;-63
2022/01/06 15:51:02;;;;;;;;;;;;;;;-12.36;69.16;96669.00;6374518;27;20392;-63
2022/01/06 15:54:03;;;;;;;;;;;;;;;-12.37;69.35;96672.31;6374203;27;19924;-63
2022/01/06 15:57:04;;;;;;;;;;;;;;;-12.27;69.41;96666.63;6374430;27;20388;-63